Vindinge, Denmark
Current Conditions -  °F | °C
As of 2:20 PM on Thursday 27 Nov 2014 (Local Time) from EKRK Reporting Station
Broken Clouds Broken Clouds  
Wind Chill: 37°   Ceiling: 3700
Heat Index: 45°   Visibility: 6mi
Dew Point: 32°   Wind: 17mph
Humidity: 61%   Direction: 130°SE
Pressure: 30.06"   Gusts: NA
Location:  55.62°N, 12.14°E
Report Text: EKRK 271320Z AUTO 13015KT 9999NDV FEW032/// BKN037///07/00 Q1018
Loading
Personal Weather Stations






























Interactive Weather Map New forecast layout! Learn more

10-Day Weather Forecast

Advertisements
Track Severe Weather on mobile